Latajmy Bezpiecznie: Niespodziewana zmiana warunków pogodowych

Lotnisko Olsztyn-Dajtki

Zespół Latajmy Bezpiecznie otrzymał kolejne Zgłoszenie 16/2015. Tym razem jest to modelowe zgłoszenie Just Culture, w którym Zgłaszający dzieli się z nami swoim doświadczeniem. Zapraszamy do lektury!

Opis Zgłoszenia 16/2015

"Na początku listopada 2015 po sprawdzeniu METAR

(0830Z 26009KT 3000 BR NSC 03/02 Q1019=)

oraz TAF

(040530Z 0406/0506 22005KT 3000 BR NSC TEMPO 0406/0407 0800 FG BECMG 0408/0410 CAVOK BECMG 0417/0419 VRB02KT 4800 BR BKN005 TEMPO 0421/0506 0350 FG OVC002=)

podjęliśmy decyzję o wykonaniu dwugodzinnego lotu pomimo zamglenia i niskiej widzialności (3000 m) kierując się prognozą TAF - BECMG 0408/0410 CAVOK. Po godzinie lotu, otrzymaliśmy informację z FIS Olsztyn, że warunki pogodowe na naszym lotnisku docelowym spadły poniżej minimów VFR SPEC i musimy kierować się na lotnisko zapasowe.

Sytuacja nauczyła nas, aby być przygotowanym do lądowania na lotnisku zapasowym tak samo jak na docelowym, a co do pogody – nigdy nie być pewnym nawet aktualnych danych i krótkookresowych prognoz oraz własnych przeczuć."

Źródło: Latajmy Bezpiecznie
comments powered by Disqus